createdAt,value
2019-05-07T00:02:17.665Z,14.77
2019-05-07T00:04:47.876Z,14.35
2019-05-07T00:07:17.246Z,15.73
2019-05-07T00:09:46.857Z,15.10
2019-05-07T00:12:16.560Z,14.30
2019-05-07T00:14:58.097Z,16.27
2019-05-07T00:17:17.007Z,16.23
2019-05-07T00:19:46.685Z,16.00
2019-05-07T00:22:16.047Z,14.30
2019-05-07T00:24:45.718Z,15.85
2019-05-07T00:27:15.624Z,16.00
2019-05-07T00:29:45.002Z,15.00
2019-05-07T00:32:14.589Z,15.50
2019-05-07T00:34:45.602Z,16.03
2019-05-07T00:37:25.449Z,16.03
2019-05-07T00:39:56.496Z,16.27
2019-05-07T00:42:27.659Z,15.77
2019-05-07T00:45:13.294Z,16.53
2019-05-07T00:47:30.265Z,16.17
2019-05-07T00:50:03.923Z,15.70
2019-05-07T00:52:33.692Z,17.95
2019-05-07T00:55:03.397Z,16.50
2019-05-07T00:57:33.264Z,16.47
2019-05-07T01:00:03.224Z,16.00
2019-05-07T01:02:33.028Z,15.70
2019-05-07T01:05:03.162Z,17.57
2019-05-07T01:07:32.984Z,15.17
2019-05-07T01:10:02.704Z,16.73
2019-05-07T01:12:33.055Z,15.90
2019-05-07T01:15:03.081Z,17.10
2019-05-07T01:17:33.940Z,16.27
2019-05-07T01:20:03.992Z,16.70
2019-05-07T01:22:33.896Z,17.75
2019-05-07T01:25:04.801Z,16.25
2019-05-07T01:27:34.165Z,17.10
2019-05-07T01:30:04.265Z,16.87
2019-05-07T01:32:38.537Z,18.80
2019-05-07T01:35:13.025Z,17.33
2019-05-07T01:37:43.147Z,18.32
2019-05-07T01:40:12.771Z,17.97
2019-05-07T01:42:42.467Z,17.07
2019-05-07T01:45:13.221Z,16.93
2019-05-07T01:47:42.694Z,17.30
2019-05-07T01:50:13.341Z,17.43
2019-05-07T01:52:42.936Z,16.70
2019-05-07T01:55:13.007Z,18.00
2019-05-07T01:57:42.701Z,15.55
2019-05-07T02:00:13.089Z,16.13
2019-05-07T02:02:44.488Z,16.47
2019-05-07T02:05:22.898Z,14.17
2019-05-07T02:07:53.950Z,17.30
2019-05-07T02:10:32.079Z,14.53
2019-05-07T02:13:02.787Z,15.95
2019-05-07T02:15:33.302Z,13.70
2019-05-07T02:18:02.909Z,15.50
2019-05-07T02:20:33.254Z,15.70
2019-05-07T02:23:03.007Z,14.73
2019-05-07T02:25:33.330Z,16.12
2019-05-07T02:28:02.970Z,14.93
2019-05-07T02:30:35.042Z,15.55
2019-05-07T02:33:04.330Z,13.03
2019-05-07T02:35:34.094Z,14.80
2019-05-07T02:38:08.306Z,13.30
2019-05-07T02:40:39.686Z,13.63
2019-05-07T02:43:09.048Z,14.10
2019-05-07T02:45:49.797Z,14.20
2019-05-07T02:48:23.654Z,13.67
2019-05-07T02:50:54.114Z,13.20
2019-05-07T02:53:25.119Z,12.50
2019-05-07T02:55:56.457Z,14.20
2019-05-07T02:58:26.067Z,12.23
2019-05-07T03:00:55.613Z,12.80
2019-05-07T03:03:25.050Z,13.27
2019-05-07T03:05:55.388Z,12.30
2019-05-07T03:08:27.531Z,12.73
2019-05-07T03:10:56.392Z,12.50
2019-05-07T03:13:26.349Z,14.40
2019-05-07T03:15:56.023Z,13.22
2019-05-07T03:18:25.373Z,13.23
2019-05-07T03:20:56.880Z,12.57
2019-05-07T03:23:33.758Z,14.20
2019-05-07T03:26:04.287Z,13.07
2019-05-07T03:28:35.870Z,12.90
2019-05-07T03:31:18.797Z,14.17
2019-05-07T03:34:07.088Z,12.87
2019-05-07T03:36:46.639Z,13.77
2019-05-07T03:39:14.466Z,12.40
2019-05-07T03:41:43.741Z,10.97
2019-05-07T03:44:14.977Z,11.70
2019-05-07T03:46:56.721Z,12.00
2019-05-07T03:49:29.477Z,14.03
2019-05-07T03:52:00.109Z,12.93
2019-05-07T03:54:29.797Z,14.60
2019-05-07T03:57:04.190Z,12.80
2019-05-07T03:59:33.972Z,13.53
2019-05-07T04:02:03.310Z,11.20
2019-05-07T04:04:33.510Z,12.20
2019-05-07T04:07:03.747Z,10.63
2019-05-07T04:09:33.672Z,10.60
2019-05-07T04:12:04.078Z,12.03
2019-05-07T04:14:34.438Z,13.17
2019-05-07T04:17:16.638Z,12.87
2019-05-07T04:19:35.522Z,11.90
2019-05-07T04:22:05.234Z,12.45
2019-05-07T04:24:36.276Z,12.30
2019-05-07T04:27:07.311Z,14.73
2019-05-07T04:29:37.028Z,16.20
2019-05-07T04:32:07.194Z,15.20
2019-05-07T04:34:54.433Z,14.27
2019-05-07T04:37:24.096Z,15.83
2019-05-07T04:39:54.154Z,15.43
2019-05-07T04:42:24.528Z,15.07
2019-05-07T04:44:54.322Z,16.80
2019-05-07T04:47:34.705Z,15.90
2019-05-07T04:49:55.059Z,16.55
2019-05-07T04:52:26.082Z,16.37
2019-05-07T04:55:13.624Z,16.67
2019-05-07T04:57:53.381Z,16.02
2019-05-07T05:00:26.283Z,17.60
2019-05-07T05:02:57.347Z,17.97
2019-05-07T05:05:26.999Z,18.17
2019-05-07T05:07:56.385Z,17.93
2019-05-07T05:10:25.779Z,18.70
2019-05-07T05:12:55.326Z,18.60
2019-05-07T05:15:24.948Z,18.60
2019-05-07T05:17:54.606Z,18.70
2019-05-07T05:20:25.960Z,19.70
2019-05-07T05:22:57.219Z,21.57
2019-05-07T05:25:28.217Z,20.20
2019-05-07T05:27:57.582Z,20.83
2019-05-07T05:30:37.954Z,21.60
2019-05-07T05:33:07.567Z,22.27
2019-05-07T05:35:37.234Z,22.02
2019-05-07T05:38:06.598Z,23.13
2019-05-07T05:40:36.264Z,22.35
2019-05-07T05:43:16.448Z,21.37
2019-05-07T05:45:49.887Z,22.60
2019-05-07T05:48:19.361Z,20.43
2019-05-07T05:50:50.367Z,18.47
2019-05-07T05:53:27.020Z,15.70
2019-05-07T05:55:58.034Z,17.97
2019-05-07T05:58:29.354Z,14.53
2019-05-07T06:01:03.064Z,12.87
2019-05-07T06:03:44.712Z,12.75
2019-05-07T06:06:27.977Z,12.27
2019-05-07T06:09:01.795Z,12.50
2019-05-07T06:11:35.723Z,12.00
2019-05-07T06:14:06.997Z,11.33
2019-05-07T06:16:42.016Z,10.93
2019-05-07T06:19:13.145Z,8.97
2019-05-07T06:22:02.328Z,9.23
2019-05-07T06:24:35.900Z,9.60
2019-05-07T06:27:06.022Z,8.40
2019-05-07T06:29:35.682Z,9.47
2019-05-07T06:32:07.264Z,8.40
2019-05-07T06:34:36.907Z,7.60
2019-05-07T06:37:06.791Z,8.50
2019-05-07T06:39:43.545Z,7.00
2019-05-07T06:42:33.124Z,6.70
2019-05-07T06:45:22.851Z,6.70
2019-05-07T06:47:52.436Z,6.80
2019-05-07T06:50:22.185Z,6.30
2019-05-07T06:52:52.053Z,6.53
2019-05-07T06:55:22.952Z,4.83
2019-05-07T06:57:53.087Z,4.30
2019-05-07T07:00:26.017Z,4.03
2019-05-07T07:03:01.911Z,3.93
2019-05-07T07:05:35.136Z,2.77
2019-05-07T07:08:06.193Z,4.40
2019-05-07T07:10:53.372Z,5.10
2019-05-07T07:13:24.375Z,3.43
2019-05-07T07:15:54.804Z,3.33
2019-05-07T07:18:25.440Z,4.00
2019-05-07T07:20:55.043Z,4.80
2019-05-07T07:23:24.620Z,4.40
2019-05-07T07:25:53.984Z,3.70
2019-05-07T07:28:23.601Z,4.27
2019-05-07T07:31:02.363Z,4.73
2019-05-07T07:33:33.514Z,4.93
2019-05-07T07:36:02.893Z,4.87
2019-05-07T07:38:35.200Z,4.78
2019-05-07T07:41:09.654Z,3.77
2019-05-07T07:43:41.914Z,4.30
2019-05-07T07:46:13.144Z,4.40
2019-05-07T07:48:43.658Z,3.30
2019-05-07T07:51:13.973Z,4.00
2019-05-07T07:53:43.573Z,4.40
2019-05-07T07:56:48.392Z,4.23
2019-05-07T07:59:22.157Z,4.03
2019-05-07T08:02:08.089Z,3.80
2019-05-07T08:04:37.816Z,4.20
2019-05-07T08:07:07.180Z,3.47
2019-05-07T08:09:37.093Z,2.70
2019-05-07T08:12:08.142Z,2.97
2019-05-07T08:14:37.817Z,2.77
2019-05-07T08:17:08.661Z,3.87
2019-05-07T08:19:38.021Z,3.08
2019-05-07T08:22:08.058Z,3.37
2019-05-07T08:24:37.732Z,2.83
2019-05-07T08:27:07.110Z,3.03
2019-05-07T08:29:36.761Z,3.03
2019-05-07T08:32:13.773Z,2.33
2019-05-07T08:34:52.132Z,3.02
2019-05-07T08:37:24.278Z,2.60
2019-05-07T08:39:53.265Z,2.43
2019-05-07T08:42:22.934Z,2.67
2019-05-07T08:45:00.052Z,3.13
2019-05-07T08:47:31.988Z,2.40
2019-05-07T08:50:02.913Z,2.67
2019-05-07T08:52:34.232Z,2.32
2019-05-07T08:55:05.812Z,2.60
2019-05-07T08:57:35.245Z,2.40
2019-05-07T09:00:06.334Z,2.47
2019-05-07T09:02:36.979Z,2.70
2019-05-07T09:05:09.299Z,3.40
2019-05-07T09:07:42.422Z,2.73
2019-05-07T09:10:12.756Z,2.93
2019-05-07T09:12:42.985Z,2.40
2019-05-07T09:15:12.819Z,2.93
2019-05-07T09:17:43.434Z,2.63
2019-05-07T09:20:12.991Z,2.60
2019-05-07T09:22:42.868Z,3.20
2019-05-07T09:25:13.313Z,2.90
2019-05-07T09:27:44.931Z,2.83
2019-05-07T09:30:22.650Z,3.27
2019-05-07T09:32:59.651Z,2.67
2019-05-07T09:35:39.938Z,3.17
2019-05-07T09:38:09.624Z,2.50
2019-05-07T09:40:39.261Z,2.87
2019-05-07T09:43:11.748Z,2.73
2019-05-07T09:45:42.112Z,2.80
2019-05-07T09:48:12.107Z,3.17
2019-05-07T09:50:42.793Z,2.87
2019-05-07T09:53:12.890Z,3.40
2019-05-07T09:55:42.747Z,2.90
2019-05-07T09:58:12.599Z,3.60
2019-05-07T10:00:42.551Z,3.50
2019-05-07T10:03:12.757Z,3.60
2019-05-07T10:05:42.933Z,3.70
2019-05-07T10:08:12.983Z,3.30
2019-05-07T10:10:45.771Z,3.08
2019-05-07T10:13:16.853Z,3.40
2019-05-07T10:15:46.464Z,3.50
2019-05-07T10:18:17.156Z,3.10
2019-05-07T10:20:47.068Z,3.45
2019-05-07T10:23:19.689Z,3.40
2019-05-07T10:25:50.088Z,3.92
2019-05-07T10:28:22.570Z,3.33
2019-05-07T10:30:53.000Z,3.83
2019-05-07T10:33:22.963Z,3.30
2019-05-07T10:35:53.955Z,3.50
2019-05-07T10:38:23.324Z,3.90
2019-05-07T10:40:52.853Z,3.23
2019-05-07T10:43:22.445Z,3.30
2019-05-07T10:46:05.894Z,3.27
2019-05-07T10:48:39.818Z,3.37
2019-05-07T10:51:09.171Z,3.13
2019-05-07T10:53:38.831Z,3.20
2019-05-07T10:56:08.435Z,3.43
2019-05-07T10:58:37.955Z,3.33
2019-05-07T11:01:07.380Z,2.73
2019-05-07T11:03:36.989Z,2.63
2019-05-07T11:06:06.404Z,2.60
2019-05-07T11:08:36.311Z,3.13
2019-05-07T11:11:05.907Z,3.20
2019-05-07T11:13:35.562Z,3.17
2019-05-07T11:16:06.654Z,3.13
2019-05-07T11:18:46.656Z,3.33
2019-05-07T11:21:17.661Z,3.10
2019-05-07T11:23:47.459Z,3.63
2019-05-07T11:26:17.061Z,3.37
2019-05-07T11:28:46.725Z,3.30
2019-05-07T11:31:16.085Z,3.20
2019-05-07T11:33:45.653Z,2.90
2019-05-07T11:36:15.063Z,3.40
2019-05-07T11:38:44.646Z,2.90
2019-05-07T11:41:14.086Z,3.50
2019-05-07T11:43:48.312Z,3.10
2019-05-07T11:46:22.347Z,3.80
2019-05-07T11:49:02.515Z,3.50
2019-05-07T11:51:33.668Z,3.60
2019-05-07T11:54:16.157Z,3.20
2019-05-07T11:56:45.522Z,3.97
2019-05-07T11:59:15.022Z,3.40
2019-05-07T12:01:47.818Z,4.20
2019-05-07T12:04:17.110Z,4.33
2019-05-07T12:06:46.490Z,4.90
2019-05-07T12:09:16.061Z,4.17
2019-05-07T12:11:46.770Z,3.63
2019-05-07T12:14:28.154Z,3.97
2019-05-07T12:16:47.484Z,4.50
2019-05-07T12:19:17.167Z,4.40
2019-05-07T12:21:47.041Z,4.63
2019-05-07T12:24:16.670Z,4.23
2019-05-07T12:26:46.332Z,4.00
2019-05-07T12:29:15.977Z,4.15
2019-05-07T12:31:55.621Z,4.50
2019-05-07T12:34:26.105Z,3.77
2019-05-07T12:36:55.487Z,4.30
2019-05-07T12:39:25.135Z,5.20
2019-05-07T12:41:54.750Z,4.07
2019-05-07T12:44:24.126Z,3.70
2019-05-07T12:46:53.494Z,3.83
2019-05-07T12:49:23.195Z,4.10
2019-05-07T12:51:57.147Z,3.90
2019-05-07T12:54:32.765Z,4.30
2019-05-07T12:57:02.498Z,12.23
2019-05-07T12:59:32.433Z,6.40
2019-05-07T13:02:17.781Z,4.28
2019-05-07T13:04:36.801Z,15.40
2019-05-07T13:07:07.932Z,6.93
2019-05-07T13:09:37.508Z,4.10
2019-05-07T13:12:07.171Z,4.27
2019-05-07T13:14:36.543Z,4.97
2019-05-07T13:17:06.145Z,4.10
2019-05-07T13:19:38.925Z,5.40
2019-05-07T13:22:07.148Z,4.25
2019-05-07T13:24:36.529Z,4.23
2019-05-07T13:27:06.206Z,4.03
2019-05-07T13:29:35.614Z,4.10
2019-05-07T13:32:05.990Z,3.70
2019-05-07T13:34:35.719Z,4.33
2019-05-07T13:37:09.851Z,4.00
2019-05-07T13:39:46.582Z,4.60
2019-05-07T13:42:27.127Z,5.00
2019-05-07T13:44:58.377Z,3.13
2019-05-07T13:47:32.442Z,4.67
2019-05-07T13:50:02.784Z,4.12
2019-05-07T13:52:33.382Z,4.63
2019-05-07T13:55:02.824Z,5.37
2019-05-07T13:57:32.388Z,4.20
2019-05-07T14:00:05.013Z,4.80
2019-05-07T14:02:36.720Z,4.40
2019-05-07T14:05:06.981Z,5.10
2019-05-07T14:07:41.554Z,4.50
2019-05-07T14:10:12.621Z,5.60
2019-05-07T14:12:42.671Z,4.60
2019-05-07T14:15:13.756Z,4.70
2019-05-07T14:17:43.402Z,5.05
2019-05-07T14:20:13.353Z,4.93
2019-05-07T14:22:42.733Z,5.80
2019-05-07T14:25:13.897Z,4.63
2019-05-07T14:27:43.559Z,4.83
2019-05-07T14:30:14.293Z,4.58
2019-05-07T14:32:45.428Z,4.97
2019-05-07T14:35:19.624Z,4.90
2019-05-07T14:37:52.369Z,4.87
2019-05-07T14:40:25.151Z,4.70
2019-05-07T14:42:58.204Z,5.00
2019-05-07T14:45:27.562Z,5.17
2019-05-07T14:47:57.222Z,5.00
2019-05-07T14:50:26.569Z,4.80
2019-05-07T14:52:56.498Z,4.25
2019-05-07T14:55:25.970Z,4.57
2019-05-07T14:57:55.432Z,5.17
2019-05-07T15:00:24.790Z,5.10
2019-05-07T15:02:54.642Z,4.97
2019-05-07T15:05:24.357Z,4.80
2019-05-07T15:08:06.619Z,5.23
2019-05-07T15:10:24.769Z,5.17
2019-05-07T15:12:54.438Z,4.60
2019-05-07T15:15:23.821Z,4.40
2019-05-07T15:18:04.651Z,4.73
2019-05-07T15:20:34.762Z,4.45
2019-05-07T15:23:08.656Z,4.20
2019-05-07T15:25:38.653Z,4.40
2019-05-07T15:28:08.171Z,4.87
2019-05-07T15:30:54.459Z,4.70
2019-05-07T15:33:23.809Z,4.10
2019-05-07T15:35:53.450Z,3.83
2019-05-07T15:38:22.801Z,3.80
2019-05-07T15:41:05.096Z,4.33
2019-05-07T15:44:03.573Z,3.92
2019-05-07T15:46:52.743Z,4.17
2019-05-07T15:49:26.005Z,4.70
2019-05-07T15:51:57.151Z,4.30
2019-05-07T15:54:27.502Z,4.37
2019-05-07T15:56:58.512Z,4.60
2019-05-07T15:59:27.862Z,3.40
2019-05-07T16:01:59.149Z,9.53
2019-05-07T16:04:28.656Z,5.17
2019-05-07T16:06:59.642Z,4.40
2019-05-07T16:09:32.643Z,5.10
2019-05-07T16:12:02.326Z,6.62
2019-05-07T16:14:32.177Z,4.63
2019-05-07T16:17:03.409Z,5.23
2019-05-07T16:19:33.009Z,5.50
2019-05-07T16:22:04.272Z,5.00
2019-05-07T16:24:35.571Z,5.40
2019-05-07T16:27:05.269Z,5.17
2019-05-07T16:29:35.896Z,5.27
2019-05-07T16:32:05.540Z,5.53
2019-05-07T16:34:35.197Z,5.07
2019-05-07T16:37:07.443Z,6.30
2019-05-07T16:39:35.934Z,5.27
2019-05-07T16:42:05.609Z,6.00
2019-05-07T16:44:34.951Z,6.40
2019-05-07T16:47:05.520Z,6.47
2019-05-07T16:49:34.905Z,5.60
2019-05-07T16:52:04.555Z,6.30
2019-05-07T16:54:34.952Z,6.10
2019-05-07T16:57:22.497Z,5.70
2019-05-07T16:59:52.293Z,5.90
2019-05-07T17:02:24.538Z,5.97
2019-05-07T17:07:57.678Z,7.90
2019-05-07T17:10:27.046Z,8.43
2019-05-07T17:12:56.912Z,8.60
2019-05-07T17:15:26.563Z,8.73
2019-05-07T17:17:58.894Z,9.50
2019-05-07T17:20:28.671Z,8.93
2019-05-07T17:22:58.049Z,9.60
2019-05-07T17:25:39.759Z,8.87
2019-05-07T17:28:12.421Z,9.10
2019-05-07T17:30:42.232Z,9.95
2019-05-07T17:33:12.941Z,10.23
2019-05-07T17:35:42.889Z,9.95
2019-05-07T17:38:12.955Z,10.10
2019-05-07T17:40:42.695Z,10.37
2019-05-07T17:43:12.392Z,9.67
2019-05-07T17:45:42.974Z,9.37
2019-05-07T17:48:13.700Z,9.93
2019-05-07T17:50:53.813Z,9.77
2019-05-07T17:53:23.465Z,9.00
2019-05-07T17:55:53.130Z,9.97
2019-05-07T17:58:24.033Z,10.90
2019-05-07T18:00:55.423Z,9.33
2019-05-07T18:03:32.587Z,9.57
2019-05-07T18:06:02.749Z,9.77
2019-05-07T18:08:32.698Z,10.60
2019-05-07T18:11:17.365Z,9.53
2019-05-07T18:13:35.162Z,10.03
2019-05-07T18:16:15.841Z,10.97
2019-05-07T18:18:45.230Z,10.10
2019-05-07T18:21:14.830Z,10.30
2019-05-07T18:23:44.291Z,10.50
2019-05-07T18:26:27.236Z,10.33
2019-05-07T18:28:45.045Z,8.83
2019-05-07T18:31:15.906Z,10.08
2019-05-07T18:33:46.962Z,10.13
2019-05-07T18:36:16.330Z,9.53
2019-05-07T18:38:46.008Z,10.43
2019-05-07T18:41:15.907Z,10.35
2019-05-07T18:43:45.298Z,10.38
2019-05-07T18:46:14.954Z,11.55
2019-05-07T18:48:44.400Z,12.10
2019-05-07T18:51:13.865Z,11.10
2019-05-07T18:53:43.251Z,10.67
2019-05-07T18:56:13.136Z,11.57
2019-05-07T18:58:43.129Z,11.97
2019-05-07T19:01:14.132Z,10.87
2019-05-07T19:03:44.955Z,11.83
2019-05-07T19:06:14.400Z,12.47
2019-05-07T19:08:44.055Z,12.55
2019-05-07T19:11:13.889Z,11.63
2019-05-07T19:13:43.261Z,11.33
2019-05-07T19:16:13.009Z,11.83
2019-05-07T19:18:43.121Z,12.37
2019-05-07T19:21:12.973Z,12.90
2019-05-07T19:23:42.559Z,12.40
2019-05-07T19:26:13.114Z,11.53
2019-05-07T19:28:43.203Z,14.10
2019-05-07T19:31:12.736Z,12.40
2019-05-07T19:33:42.279Z,13.00
2019-05-07T19:36:12.002Z,12.30
2019-05-07T19:38:42.076Z,13.10
2019-05-07T19:41:12.348Z,11.77
2019-05-07T19:43:42.213Z,11.80
2019-05-07T19:46:12.352Z,15.47
2019-05-07T19:48:44.068Z,13.00
2019-05-07T19:51:13.595Z,13.03
2019-05-07T19:53:43.261Z,13.63
2019-05-07T19:56:23.331Z,14.47
2019-05-07T19:58:52.857Z,13.62
2019-05-07T20:01:23.669Z,44.90
2019-05-07T20:03:53.303Z,47.47
2019-05-07T20:06:23.494Z,15.45
2019-05-07T20:08:53.172Z,12.95
2019-05-07T20:11:27.128Z,14.10
2019-05-07T20:13:56.804Z,15.00
2019-05-07T20:16:26.185Z,14.60
2019-05-07T20:18:55.560Z,15.50
2019-05-07T20:21:26.671Z,17.40
2019-05-07T20:23:56.067Z,15.87
2019-05-07T20:26:25.448Z,15.33
2019-05-07T20:28:55.330Z,15.07
2019-05-07T20:31:24.748Z,15.07
2019-05-07T20:33:54.245Z,15.07
2019-05-07T20:36:24.265Z,15.28
2019-05-07T20:38:54.616Z,15.63
2019-05-07T20:41:25.074Z,15.00
2019-05-07T20:43:54.424Z,15.03
2019-05-07T20:46:24.106Z,16.20
2019-05-07T20:48:53.471Z,15.17
2019-05-07T20:51:23.283Z,14.60
2019-05-07T20:53:57.140Z,15.03
2019-05-07T20:56:46.395Z,15.50
2019-05-07T20:59:14.117Z,15.70
2019-05-07T21:01:43.550Z,15.90
2019-05-07T21:04:13.192Z,15.70
2019-05-07T21:06:43.285Z,15.83
2019-05-07T21:09:13.054Z,15.43
2019-05-07T21:11:43.066Z,16.93
2019-05-07T21:14:12.558Z,17.47
2019-05-07T21:16:42.592Z,16.43
2019-05-07T21:19:16.090Z,16.40
2019-05-07T21:21:43.642Z,16.67
2019-05-07T21:24:13.483Z,18.20
2019-05-07T21:26:43.121Z,16.80
2019-05-07T21:29:13.740Z,15.50
2019-05-07T21:31:43.419Z,16.93
2019-05-07T21:34:12.778Z,17.13
2019-05-07T21:36:43.380Z,16.80
2019-05-07T21:39:13.319Z,15.68
2019-05-07T21:41:42.939Z,17.37
2019-05-07T21:44:12.567Z,16.90
2019-05-07T21:46:42.741Z,18.60
2019-05-07T21:49:12.464Z,16.83
2019-05-07T21:51:42.839Z,16.90
2019-05-07T21:54:28.474Z,18.60
2019-05-07T21:57:01.940Z,16.75
2019-05-07T21:59:36.425Z,16.53
2019-05-07T22:02:08.454Z,17.02
2019-05-07T22:04:38.078Z,16.90
2019-05-07T22:07:07.447Z,16.00
2019-05-07T22:09:37.105Z,16.70
2019-05-07T22:12:06.498Z,17.20
2019-05-07T22:14:37.418Z,17.55
2019-05-07T22:17:07.148Z,18.10
2019-05-07T22:19:36.803Z,17.27
2019-05-07T22:22:06.339Z,16.80
2019-05-07T22:24:36.689Z,18.07
2019-05-07T22:27:06.305Z,17.43
2019-05-07T22:29:35.721Z,19.53
2019-05-07T22:32:17.975Z,17.60
2019-05-07T22:34:49.270Z,17.43
2019-05-07T22:37:21.976Z,18.53
2019-05-07T22:40:08.455Z,15.97
2019-05-07T22:42:39.873Z,17.63
2019-05-07T22:45:12.143Z,15.80
2019-05-07T22:47:42.070Z,16.80
2019-05-07T22:50:12.117Z,18.00
2019-05-07T22:52:41.587Z,18.05
2019-05-07T22:55:13.987Z,17.63
2019-05-07T22:57:46.941Z,18.62
2019-05-07T23:00:19.729Z,18.37
2019-05-07T23:02:51.695Z,18.60
2019-05-07T23:05:22.856Z,19.07
2019-05-07T23:07:52.611Z,18.10
2019-05-07T23:10:22.599Z,18.42
2019-05-07T23:12:52.006Z,18.60
2019-05-07T23:15:22.641Z,19.50
2019-05-07T23:17:52.862Z,17.90
2019-05-07T23:20:24.350Z,18.43
2019-05-07T23:22:53.425Z,18.37
2019-05-07T23:25:24.580Z,18.60
2019-05-07T23:27:53.851Z,17.47
2019-05-07T23:30:23.625Z,20.07
2019-05-07T23:32:53.542Z,20.12
2019-05-07T23:35:22.901Z,18.80
2019-05-07T23:37:53.070Z,18.67
2019-05-07T23:40:41.988Z,17.30
2019-05-07T23:43:16.123Z,19.80
2019-05-07T23:45:45.499Z,19.60
2019-05-07T23:48:14.870Z,19.40
2019-05-07T23:50:44.540Z,19.23
2019-05-07T23:53:13.912Z,19.50
2019-05-07T23:55:43.574Z,17.55
2019-05-07T23:58:14.178Z,18.00
